sensor_id;sensor_type;location;lat;lon;timestamp;pressure;altitude;pressure_sealevel;temperature;humidity
64632;BME280;58358;50.936;0.246;2023-03-15T00:02:02;100835.63;;;3.63;73.84
64632;BME280;58358;50.936;0.246;2023-03-15T00:04:28;100835.52;;;2.65;77.54
64632;BME280;58358;50.936;0.246;2023-03-15T00:06:54;100842.96;;;3.12;74.76
64632;BME280;58358;50.936;0.246;2023-03-15T00:09:20;100843.17;;;3.30;74.78
64632;BME280;58358;50.936;0.246;2023-03-15T00:11:44;100843.89;;;3.46;72.77
64632;BME280;58358;50.936;0.246;2023-03-15T00:14:10;100848.36;;;4.16;71.24
64632;BME280;58358;50.936;0.246;2023-03-15T00:16:36;100855.80;;;3.69;72.51
64632;BME280;58358;50.936;0.246;2023-03-15T00:19:01;100859.88;;;3.44;73.05
64632;BME280;58358;50.936;0.246;2023-03-15T00:21:26;100863.71;;;3.70;69.86
64632;BME280;58358;50.936;0.246;2023-03-15T00:23:52;100868.43;;;3.04;73.85
64632;BME280;58358;50.936;0.246;2023-03-15T00:26:17;100871.40;;;4.14;71.56
64632;BME280;58358;50.936;0.246;2023-03-15T00:28:43;100871.10;;;4.39;67.59
64632;BME280;58358;50.936;0.246;2023-03-15T00:31:13;100874.33;;;5.06;66.30
64632;BME280;58358;50.936;0.246;2023-03-15T00:33:34;100873.85;;;4.45;66.79
64632;BME280;58358;50.936;0.246;2023-03-15T00:36:02;100876.24;;;4.57;67.08
64632;BME280;58358;50.936;0.246;2023-03-15T00:38:25;100880.90;;;3.75;68.42
64632;BME280;58358;50.936;0.246;2023-03-15T00:40:50;100876.30;;;3.96;67.84
64632;BME280;58358;50.936;0.246;2023-03-15T00:43:15;100886.24;;;4.13;67.44
64632;BME280;58358;50.936;0.246;2023-03-15T00:45:41;100880.99;;;4.53;66.22
64632;BME280;58358;50.936;0.246;2023-03-15T00:48:08;100884.47;;;4.61;65.83
64632;BME280;58358;50.936;0.246;2023-03-15T00:50:31;100884.32;;;4.10;66.47
64632;BME280;58358;50.936;0.246;2023-03-15T00:52:57;100893.04;;;3.78;67.35
64632;BME280;58358;50.936;0.246;2023-03-15T00:55:22;100891.30;;;4.81;65.81
64632;BME280;58358;50.936;0.246;2023-03-15T00:57:48;100891.55;;;4.94;64.37
64632;BME280;58358;50.936;0.246;2023-03-15T01:00:16;100899.28;;;4.68;63.95
64632;BME280;58358;50.936;0.246;2023-03-15T01:02:40;100903.60;;;4.70;63.90
64632;BME280;58358;50.936;0.246;2023-03-15T01:05:05;100903.03;;;4.64;64.25
64632;BME280;58358;50.936;0.246;2023-03-15T01:07:30;100902.73;;;4.00;65.06
64632;BME280;58358;50.936;0.246;2023-03-15T01:09:55;100905.36;;;3.57;67.42
64632;BME280;58358;50.936;0.246;2023-03-15T01:12:21;100907.85;;;4.12;66.45
64632;BME280;58358;50.936;0.246;2023-03-15T01:14:46;100912.48;;;3.73;68.67
64632;BME280;58358;50.936;0.246;2023-03-15T01:17:12;100917.98;;;3.78;69.02
64632;BME280;58358;50.936;0.246;2023-03-15T01:19:37;100918.15;;;3.54;69.36
64632;BME280;58358;50.936;0.246;2023-03-15T01:22:02;100917.50;;;3.71;68.64
64632;BME280;58358;50.936;0.246;2023-03-15T01:24:27;100912.20;;;3.89;66.49
64632;BME280;58358;50.936;0.246;2023-03-15T01:26:52;100912.04;;;3.93;66.02
64632;BME280;58358;50.936;0.246;2023-03-15T01:29:17;100912.37;;;2.64;68.60
64632;BME280;58358;50.936;0.246;2023-03-15T01:31:42;100920.77;;;3.40;65.44
64632;BME280;58358;50.936;0.246;2023-03-15T01:34:08;100920.74;;;2.70;67.22
64632;BME280;58358;50.936;0.246;2023-03-15T01:36:32;100916.55;;;1.37;73.07
64632;BME280;58358;50.936;0.246;2023-03-15T01:38:57;100915.68;;;1.48;74.66
64632;BME280;58358;50.936;0.246;2023-03-15T01:41:22;100923.34;;;3.58;69.20
64632;BME280;58358;50.936;0.246;2023-03-15T01:43:47;100926.65;;;3.35;68.51
64632;BME280;58358;50.936;0.246;2023-03-15T01:46:20;100933.06;;;4.05;64.78
64632;BME280;58358;50.936;0.246;2023-03-15T01:48:39;100932.80;;;3.85;64.34
64632;BME280;58358;50.936;0.246;2023-03-15T01:51:07;100929.77;;;3.28;65.54
64632;BME280;58358;50.936;0.246;2023-03-15T01:53:29;100936.15;;;2.28;70.34
64632;BME280;58358;50.936;0.246;2023-03-15T01:55:53;100937.53;;;3.71;63.99
64632;BME280;58358;50.936;0.246;2023-03-15T01:58:19;100935.87;;;2.49;68.27
64632;BME280;58358;50.936;0.246;2023-03-15T02:00:43;100941.50;;;2.86;67.14
64632;BME280;58358;50.936;0.246;2023-03-15T02:03:12;100949.89;;;3.73;63.60
64632;BME280;58358;50.936;0.246;2023-03-15T02:05:38;100950.93;;;3.82;62.84
64632;BME280;58358;50.936;0.246;2023-03-15T02:07:59;100949.50;;;3.19;63.70
64632;BME280;58358;50.936;0.246;2023-03-15T02:10:27;100958.09;;;3.74;62.80
64632;BME280;58358;50.936;0.246;2023-03-15T02:12:50;100957.81;;;3.22;63.43
64632;BME280;58358;50.936;0.246;2023-03-15T02:15:14;100963.82;;;3.53;63.86
64632;BME280;58358;50.936;0.246;2023-03-15T02:17:42;100962.96;;;2.97;64.27
64632;BME280;58358;50.936;0.246;2023-03-15T02:20:14;100963.76;;;2.79;65.47
64632;BME280;58358;50.936;0.246;2023-03-15T02:22:36;100968.59;;;3.03;64.93
64632;BME280;58358;50.936;0.246;2023-03-15T02:24:58;100965.19;;;1.91;67.56
64632;BME280;58358;50.936;0.246;2023-03-15T02:27:22;100969.20;;;1.72;69.58
64632;BME280;58358;50.936;0.246;2023-03-15T02:29:45;100966.99;;;2.08;66.26
64632;BME280;58358;50.936;0.246;2023-03-15T02:32:10;100966.25;;;2.99;63.87
64632;BME280;58358;50.936;0.246;2023-03-15T02:34:35;100964.52;;;2.80;65.35
64632;BME280;58358;50.936;0.246;2023-03-15T02:37:00;100967.18;;;3.04;63.64
64632;BME280;58358;50.936;0.246;2023-03-15T02:39:25;100972.70;;;2.78;63.53
64632;BME280;58358;50.936;0.246;2023-03-15T02:41:53;100980.88;;;1.21;66.45
64632;BME280;58358;50.936;0.246;2023-03-15T02:44:17;100978.22;;;-0.06;72.10
64632;BME280;58358;50.936;0.246;2023-03-15T02:46:41;100978.30;;;-0.25;73.55
64632;BME280;58358;50.936;0.246;2023-03-15T02:49:07;100978.63;;;1.23;68.21
64632;BME280;58358;50.936;0.246;2023-03-15T02:51:32;100974.83;;;2.07;65.29
64632;BME280;58358;50.936;0.246;2023-03-15T02:53:55;100979.64;;;2.51;63.34
64632;BME280;58358;50.936;0.246;2023-03-15T02:56:20;100984.54;;;2.37;62.92
64632;BME280;58358;50.936;0.246;2023-03-15T02:58:45;100985.98;;;2.70;63.31
64632;BME280;58358;50.936;0.246;2023-03-15T03:01:11;100990.13;;;2.67;62.81
64632;BME280;58358;50.936;0.246;2023-03-15T03:03:35;100985.74;;;2.00;64.30
64632;BME280;58358;50.936;0.246;2023-03-15T03:06:01;100989.26;;;1.79;64.60
64632;BME280;58358;50.936;0.246;2023-03-15T03:08:26;100985.00;;;1.16;65.36
64632;BME280;58358;50.936;0.246;2023-03-15T03:10:51;100980.85;;;0.78;67.01
64632;BME280;58358;50.936;0.246;2023-03-15T03:13:16;100982.48;;;2.03;64.05
64632;BME280;58358;50.936;0.246;2023-03-15T03:15:41;100982.18;;;1.51;64.44
64632;BME280;58358;50.936;0.246;2023-03-15T03:18:06;100983.71;;;2.16;63.11
64632;BME280;58358;50.936;0.246;2023-03-15T03:20:31;100982.76;;;0.06;69.18
64632;BME280;58358;50.936;0.246;2023-03-15T03:22:56;100983.40;;;1.90;64.25
64632;BME280;58358;50.936;0.246;2023-03-15T03:25:21;100983.81;;;1.78;63.47
64632;BME280;58358;50.936;0.246;2023-03-15T03:27:47;100982.10;;;2.06;62.97
64632;BME280;58358;50.936;0.246;2023-03-15T03:30:13;100979.64;;;0.96;64.08
64632;BME280;58358;50.936;0.246;2023-03-15T03:32:37;100977.73;;;0.74;66.86
64632;BME280;58358;50.936;0.246;2023-03-15T03:35:02;100980.52;;;1.23;65.63
64632;BME280;58358;50.936;0.246;2023-03-15T03:37:27;100986.83;;;-0.50;69.41
64632;BME280;58358;50.936;0.246;2023-03-15T03:39:52;100984.66;;;1.49;65.40
64632;BME280;58358;50.936;0.246;2023-03-15T03:42:17;100990.28;;;1.39;63.98
64632;BME280;58358;50.936;0.246;2023-03-15T03:44:42;100994.97;;;1.09;63.91
64632;BME280;58358;50.936;0.246;2023-03-15T03:47:07;101006.39;;;1.50;63.91
64632;BME280;58358;50.936;0.246;2023-03-15T03:49:32;101012.49;;;1.16;65.09
64632;BME280;58358;50.936;0.246;2023-03-15T03:51:57;101018.91;;;1.24;65.00
64632;BME280;58358;50.936;0.246;2023-03-15T03:54:22;101028.12;;;0.42;66.40
64632;BME280;58358;50.936;0.246;2023-03-15T03:56:48;101033.41;;;-0.35;69.66
64632;BME280;58358;50.936;0.246;2023-03-15T03:59:13;101037.34;;;0.57;68.92
64632;BME280;58358;50.936;0.246;2023-03-15T04:01:39;101040.57;;;0.43;71.21
64632;BME280;58358;50.936;0.246;2023-03-15T04:04:03;101047.11;;;0.52;68.89
64632;BME280;58358;50.936;0.246;2023-03-15T04:06:28;101054.92;;;-0.62;69.68
64632;BME280;58358;50.936;0.246;2023-03-15T04:08:53;101051.56;;;0.78;66.71
64632;BME280;58358;50.936;0.246;2023-03-15T04:11:18;101054.49;;;0.57;66.77
64632;BME280;58358;50.936;0.246;2023-03-15T04:13:43;101060.23;;;0.46;67.09
64632;BME280;58358;50.936;0.246;2023-03-15T04:16:08;101061.81;;;0.81;66.05
64632;BME280;58358;50.936;0.246;2023-03-15T04:18:33;101063.48;;;1.21;65.63
64632;BME280;58358;50.936;0.246;2023-03-15T04:20:59;101058.91;;;1.24;65.26
64632;BME280;58358;50.936;0.246;2023-03-15T04:23:24;101059.43;;;1.53;63.88
64632;BME280;58358;50.936;0.246;2023-03-15T04:25:49;101053.35;;;1.83;62.52
64632;BME280;58358;50.936;0.246;2023-03-15T04:28:14;101054.76;;;1.53;62.99
64632;BME280;58358;50.936;0.246;2023-03-15T04:30:39;101054.70;;;1.43;63.94
64632;BME280;58358;50.936;0.246;2023-03-15T04:33:04;101062.09;;;-0.85;70.22
64632;BME280;58358;50.936;0.246;2023-03-15T04:35:31;101063.19;;;-0.12;69.56
64632;BME280;58358;50.936;0.246;2023-03-15T04:37:54;101061.52;;;0.80;66.38
64632;BME280;58358;50.936;0.246;2023-03-15T04:40:20;101063.86;;;-0.50;69.52
64632;BME280;58358;50.936;0.246;2023-03-15T04:42:45;101061.77;;;0.32;67.97
64632;BME280;58358;50.936;0.246;2023-03-15T04:45:10;101062.95;;;0.58;68.86
64632;BME280;58358;50.936;0.246;2023-03-15T04:47:35;101062.52;;;-1.04;69.65
64632;BME280;58358;50.936;0.246;2023-03-15T04:50:00;101062.09;;;0.49;67.92
64632;BME280;58358;50.936;0.246;2023-03-15T04:52:25;101057.19;;;-1.46;72.09
64632;BME280;58358;50.936;0.246;2023-03-15T04:54:50;101057.06;;;0.80;65.98
64632;BME280;58358;50.936;0.246;2023-03-15T04:57:15;101058.52;;;0.79;66.09
64632;BME280;58358;50.936;0.246;2023-03-15T04:59:41;101061.66;;;-0.69;68.66
64632;BME280;58358;50.936;0.246;2023-03-15T05:02:06;101063.49;;;1.11;64.66
64632;BME280;58358;50.936;0.246;2023-03-15T05:04:30;101061.62;;;0.67;64.41
64632;BME280;58358;50.936;0.246;2023-03-15T05:06:56;101063.72;;;0.26;64.78
64632;BME280;58358;50.936;0.246;2023-03-15T05:09:21;101065.15;;;0.59;65.22
64632;BME280;58358;50.936;0.246;2023-03-15T05:11:47;101067.38;;;-1.50;70.60
64632;BME280;58358;50.936;0.246;2023-03-15T05:14:12;101075.82;;;-2.06;74.90
64632;BME280;58358;50.936;0.246;2023-03-15T05:16:37;101078.04;;;-0.29;71.48
64632;BME280;58358;50.936;0.246;2023-03-15T05:19:02;101072.77;;;-1.55;72.44
64632;BME280;58358;50.936;0.246;2023-03-15T05:21:27;101070.29;;;-2.73;77.77
64632;BME280;58358;50.936;0.246;2023-03-15T05:23:53;101068.48;;;-0.76;70.97
64632;BME280;58358;50.936;0.246;2023-03-15T05:26:18;101069.36;;;-1.46;74.11
64632;BME280;58358;50.936;0.246;2023-03-15T05:28:43;101069.99;;;-1.36;70.88
64632;BME280;58358;50.936;0.246;2023-03-15T05:31:08;101070.74;;;0.65;67.21
64632;BME280;58358;50.936;0.246;2023-03-15T05:33:33;101072.43;;;0.29;66.79
64632;BME280;58358;50.936;0.246;2023-03-15T05:35:58;101077.61;;;-1.57;72.82
64632;BME280;58358;50.936;0.246;2023-03-15T05:38:23;101085.39;;;0.45;67.93
64632;BME280;58358;50.936;0.246;2023-03-15T05:40:48;101081.21;;;0.72;65.12
64632;BME280;58358;50.936;0.246;2023-03-15T05:43:13;101074.02;;;-0.04;66.55
64632;BME280;58358;50.936;0.246;2023-03-15T05:45:39;101069.73;;;-0.53;70.54
64632;BME280;58358;50.936;0.246;2023-03-15T05:48:04;101082.92;;;-1.39;72.76
64632;BME280;58358;50.936;0.246;2023-03-15T05:50:29;101088.94;;;-1.72;72.65
64632;BME280;58358;50.936;0.246;2023-03-15T05:52:54;101090.15;;;-0.45;71.53
64632;BME280;58358;50.936;0.246;2023-03-15T05:55:19;101087.62;;;-1.07;69.18
64632;BME280;58358;50.936;0.246;2023-03-15T05:57:45;101089.56;;;0.49;65.81
64632;BME280;58358;50.936;0.246;2023-03-15T06:00:10;101089.69;;;-0.34;69.50
64632;BME280;58358;50.936;0.246;2023-03-15T06:02:34;101096.30;;;0.08;67.67
64632;BME280;58358;50.936;0.246;2023-03-15T06:05:00;101092.19;;;0.08;66.54
64632;BME280;58358;50.936;0.246;2023-03-15T06:07:25;101092.32;;;-0.09;66.95
64632;BME280;58358;50.936;0.246;2023-03-15T06:09:51;101099.04;;;-1.21;70.72
64632;BME280;58358;50.936;0.246;2023-03-15T06:12:15;101104.30;;;-1.33;72.77
64632;BME280;58358;50.936;0.246;2023-03-15T06:14:41;101098.82;;;0.16;69.33
64632;BME280;58358;50.936;0.246;2023-03-15T06:17:06;101097.27;;;-1.31;71.52
64632;BME280;58358;50.936;0.246;2023-03-15T06:19:31;101103.48;;;-1.67;72.87
64632;BME280;58358;50.936;0.246;2023-03-15T06:21:56;101107.64;;;-2.02;75.90
64632;BME280;58358;50.936;0.246;2023-03-15T06:24:21;101110.65;;;-1.32;70.96
64632;BME280;58358;50.936;0.246;2023-03-15T06:26:46;101121.18;;;0.52;67.31
64632;BME280;58358;50.936;0.246;2023-03-15T06:29:12;101124.22;;;0.52;65.99
64632;BME280;58358;50.936;0.246;2023-03-15T06:31:37;101124.57;;;-0.66;68.49
64632;BME280;58358;50.936;0.246;2023-03-15T06:34:02;101132.67;;;0.12;68.72
64632;BME280;58358;50.936;0.246;2023-03-15T06:36:27;101136.95;;;0.01;69.23
64632;BME280;58358;50.936;0.246;2023-03-15T06:38:52;101145.60;;;-1.91;73.19
64632;BME280;58358;50.936;0.246;2023-03-15T06:41:17;101143.72;;;-1.41;73.11
64632;BME280;58358;50.936;0.246;2023-03-15T06:43:42;101146.55;;;0.13;70.55
64632;BME280;58358;50.936;0.246;2023-03-15T06:46:07;101149.22;;;0.66;68.00
64632;BME280;58358;50.936;0.246;2023-03-15T06:48:32;101146.86;;;1.23;65.77
64632;BME280;58358;50.936;0.246;2023-03-15T06:50:57;101146.98;;;0.80;68.30
64632;BME280;58358;50.936;0.246;2023-03-15T06:53:23;101149.36;;;0.55;69.52
64632;BME280;58358;50.936;0.246;2023-03-15T06:55:48;101153.75;;;1.32;66.78
64632;BME280;58358;50.936;0.246;2023-03-15T06:58:13;101154.14;;;-0.06;69.49
64632;BME280;58358;50.936;0.246;2023-03-15T07:00:38;101155.03;;;0.89;67.57
64632;BME280;58358;50.936;0.246;2023-03-15T07:03:03;101150.94;;;1.23;67.58
64632;BME280;58358;50.936;0.246;2023-03-15T07:05:28;101154.10;;;-0.93;74.76
64632;BME280;58358;50.936;0.246;2023-03-15T07:07:53;101157.91;;;-0.78;73.71
64632;BME280;58358;50.936;0.246;2023-03-15T07:10:18;101161.84;;;1.07;69.59
64632;BME280;58358;50.936;0.246;2023-03-15T07:12:43;101162.91;;;0.47;70.83
64632;BME280;58358;50.936;0.246;2023-03-15T07:15:09;101166.46;;;-0.70;77.49
64632;BME280;58358;50.936;0.246;2023-03-15T07:17:34;101166.64;;;-1.10;80.33
64632;BME280;58358;50.936;0.246;2023-03-15T07:19:59;101164.51;;;-0.91;78.85
64632;BME280;58358;50.936;0.246;2023-03-15T07:22:24;101166.73;;;-0.06;75.86
64632;BME280;58358;50.936;0.246;2023-03-15T07:24:49;101172.87;;;-0.07;73.75
64632;BME280;58358;50.936;0.246;2023-03-15T07:27:14;101181.30;;;1.51;70.72
64632;BME280;58358;50.936;0.246;2023-03-15T07:29:40;101181.16;;;0.94;72.72
64632;BME280;58358;50.936;0.246;2023-03-15T07:32:05;101185.15;;;1.31;70.48
64632;BME280;58358;50.936;0.246;2023-03-15T07:34:30;101188.09;;;0.28;76.59
64632;BME280;58358;50.936;0.246;2023-03-15T07:36:55;101189.04;;;-0.08;75.94
64632;BME280;58358;50.936;0.246;2023-03-15T07:39:21;101194.22;;;1.41;73.64
64632;BME280;58358;50.936;0.246;2023-03-15T07:41:46;101199.09;;;0.39;74.65
64632;BME280;58358;50.936;0.246;2023-03-15T07:44:12;101196.77;;;2.34;70.48
64632;BME280;58358;50.936;0.246;2023-03-15T07:46:37;101199.89;;;2.64;69.35
64632;BME280;58358;50.936;0.246;2023-03-15T07:49:02;101203.75;;;2.97;67.80
64632;BME280;58358;50.936;0.246;2023-03-15T07:51:27;101201.68;;;3.14;67.94
64632;BME280;58358;50.936;0.246;2023-03-15T07:53:53;101199.25;;;2.74;71.31
64632;BME280;58358;50.936;0.246;2023-03-15T07:56:17;101202.30;;;2.82;68.55
64632;BME280;58358;50.936;0.246;2023-03-15T07:58:42;101204.24;;;3.09;68.71
64632;BME280;58358;50.936;0.246;2023-03-15T08:01:08;101206.77;;;2.64;68.52
64632;BME280;58358;50.936;0.246;2023-03-15T08:03:33;101206.95;;;3.75;67.95
64632;BME280;58358;50.936;0.246;2023-03-15T08:05:59;101214.34;;;3.49;69.09
64632;BME280;58358;50.936;0.246;2023-03-15T08:08:24;101212.84;;;3.76;69.39
64632;BME280;58358;50.936;0.246;2023-03-15T08:10:49;101212.98;;;3.80;70.12
64632;BME280;58358;50.936;0.246;2023-03-15T08:13:15;101205.81;;;2.49;74.19
64632;BME280;58358;50.936;0.246;2023-03-15T08:15:44;101201.78;;;3.29;70.11
64632;BME280;58358;50.936;0.246;2023-03-15T08:18:07;101203.23;;;3.37;69.40
64632;BME280;58358;50.936;0.246;2023-03-15T08:20:32;101204.58;;;4.25;68.49
64632;BME280;58358;50.936;0.246;2023-03-15T08:22:58;101212.49;;;4.09;69.63
64632;BME280;58358;50.936;0.246;2023-03-15T08:25:24;101213.23;;;3.45;72.89
64632;BME280;58358;50.936;0.246;2023-03-15T08:27:49;101215.87;;;4.54;68.00
64632;BME280;58358;50.936;0.246;2023-03-15T08:30:16;101214.63;;;2.88;72.62
64632;BME280;58358;50.936;0.246;2023-03-15T08:32:43;101210.98;;;4.42;68.83
64632;BME280;58358;50.936;0.246;2023-03-15T08:35:07;101208.34;;;2.96;70.52
64632;BME280;58358;50.936;0.246;2023-03-15T08:37:31;101212.26;;;2.99;73.41
64632;BME280;58358;50.936;0.246;2023-03-15T08:39:57;101210.17;;;3.33;71.32
64632;BME280;58358;50.936;0.246;2023-03-15T08:42:23;101213.04;;;4.32;68.42
64632;BME280;58358;50.936;0.246;2023-03-15T08:44:48;101213.19;;;4.13;67.65
64632;BME280;58358;50.936;0.246;2023-03-15T08:47:14;101216.15;;;4.47;67.77
64632;BME280;58358;50.936;0.246;2023-03-15T08:49:40;101215.91;;;4.31;68.32
64632;BME280;58358;50.936;0.246;2023-03-15T08:52:06;101216.09;;;4.86;67.96
64632;BME280;58358;50.936;0.246;2023-03-15T08:54:31;101219.34;;;3.07;71.21
64632;BME280;58358;50.936;0.246;2023-03-15T08:56:57;101212.59;;;3.49;70.32
64632;BME280;58358;50.936;0.246;2023-03-15T08:59:23;101212.94;;;4.96;67.62
64632;BME280;58358;50.936;0.246;2023-03-15T09:01:48;101212.82;;;4.62;66.18
64632;BME280;58358;50.936;0.246;2023-03-15T09:04:14;101218.20;;;4.65;65.68
64632;BME280;58358;50.936;0.246;2023-03-15T09:06:39;101215.75;;;4.72;67.30
64632;BME280;58358;50.936;0.246;2023-03-15T09:09:05;101216.80;;;4.00;69.22
64632;BME280;58358;50.936;0.246;2023-03-15T09:11:30;101216.42;;;3.76;68.98
64632;BME280;58358;50.936;0.246;2023-03-15T09:13:55;101219.22;;;3.58;68.78
64632;BME280;58358;50.936;0.246;2023-03-15T09:16:21;101226.85;;;2.58;72.40
64632;BME280;58358;50.936;0.246;2023-03-15T09:18:47;101226.72;;;4.27;69.14
64632;BME280;58358;50.936;0.246;2023-03-15T09:21:13;101226.63;;;4.27;68.61
64632;BME280;58358;50.936;0.246;2023-03-15T09:23:39;101227.16;;;3.68;69.62
64632;BME280;58358;50.936;0.246;2023-03-15T09:26:05;101230.07;;;3.59;70.09
64632;BME280;58358;50.936;0.246;2023-03-15T09:28:30;101224.05;;;4.49;68.20
64632;BME280;58358;50.936;0.246;2023-03-15T09:30:56;101221.24;;;3.89;69.90
64632;BME280;58358;50.936;0.246;2023-03-15T09:33:21;101216.60;;;3.92;67.98
64632;BME280;58358;50.936;0.246;2023-03-15T09:35:49;101216.02;;;3.73;70.77
64632;BME280;58358;50.936;0.246;2023-03-15T09:38:13;101220.25;;;4.24;67.92
64632;BME280;58358;50.936;0.246;2023-03-15T09:40:41;101219.35;;;4.42;65.80
64632;BME280;58358;50.936;0.246;2023-03-15T09:43:21;101224.34;;;4.26;67.17
64632;BME280;58358;50.936;0.246;2023-03-15T09:45:41;101228.72;;;3.70;70.08
64632;BME280;58358;50.936;0.246;2023-03-15T09:48:02;101233.28;;;3.32;73.11
64632;BME280;58358;50.936;0.246;2023-03-15T09:50:25;101232.47;;;3.21;72.41
64632;BME280;58358;50.936;0.246;2023-03-15T09:52:49;101235.60;;;3.93;71.63
64632;BME280;58358;50.936;0.246;2023-03-15T09:55:15;101232.48;;;3.98;71.27
64632;BME280;58358;50.936;0.246;2023-03-15T09:57:42;101232.16;;;4.32;70.75
64632;BME280;58358;50.936;0.246;2023-03-15T10:00:05;101233.47;;;5.02;67.70
64632;BME280;58358;50.936;0.246;2023-03-15T10:02:30;101236.89;;;4.87;68.61
64632;BME280;58358;50.936;0.246;2023-03-15T10:05:00;101235.74;;;5.35;65.03
64632;BME280;58358;50.936;0.246;2023-03-15T10:07:21;101239.74;;;4.28;67.62
64632;BME280;58358;50.936;0.246;2023-03-15T10:09:47;101239.70;;;4.91;65.92
64632;BME280;58358;50.936;0.246;2023-03-15T10:12:15;101245.11;;;3.85;69.43
64632;BME280;58358;50.936;0.246;2023-03-15T10:14:51;101244.05;;;4.41;67.66
64632;BME280;58358;50.936;0.246;2023-03-15T10:17:10;101249.57;;;4.18;70.26
64632;BME280;58358;50.936;0.246;2023-03-15T10:19:35;101248.57;;;2.94;72.55
64632;BME280;58358;50.936;0.246;2023-03-15T10:21:59;101245.72;;;4.41;68.77
64632;BME280;58358;50.936;0.246;2023-03-15T10:24:27;101244.95;;;4.57;70.64
64632;BME280;58358;50.936;0.246;2023-03-15T10:26:48;101243.56;;;5.03;68.98
64632;BME280;58358;50.936;0.246;2023-03-15T10:29:15;101247.08;;;4.47;69.05
64632;BME280;58358;50.936;0.246;2023-03-15T10:31:40;101245.35;;;4.99;69.52
64632;BME280;58358;50.936;0.246;2023-03-15T10:34:04;101246.54;;;5.14;67.44
64632;BME280;58358;50.936;0.246;2023-03-15T10:36:30;101244.49;;;5.18;67.50
64632;BME280;58358;50.936;0.246;2023-03-15T10:38:56;101246.80;;;5.09;67.62
64632;BME280;58358;50.936;0.246;2023-03-15T10:41:29;101246.59;;;4.56;69.80
64632;BME280;58358;50.936;0.246;2023-03-15T10:43:57;101243.48;;;5.00;70.02
64632;BME280;58358;50.936;0.246;2023-03-15T10:46:20;101245.83;;;4.46;72.34
64632;BME280;58358;50.936;0.246;2023-03-15T10:48:40;101246.81;;;5.40;69.47
64632;BME280;58358;50.936;0.246;2023-03-15T10:51:06;101249.83;;;6.05;66.26
64632;BME280;58358;50.936;0.246;2023-03-15T10:53:30;101245.65;;;6.12;64.14
64632;BME280;58358;50.936;0.246;2023-03-15T10:55:59;101245.42;;;6.47;61.54
64632;BME280;58358;50.936;0.246;2023-03-15T10:58:26;101249.63;;;6.16;62.50
64632;BME280;58358;50.936;0.246;2023-03-15T11:00:49;101254.49;;;6.35;63.36
64632;BME280;58358;50.936;0.246;2023-03-15T11:03:16;101257.57;;;6.74;63.01
64632;BME280;58358;50.936;0.246;2023-03-15T11:05:41;101260.34;;;5.46;63.19
64632;BME280;58358;50.936;0.246;2023-03-15T11:08:10;101257.61;;;5.75;63.72
64632;BME280;58358;50.936;0.246;2023-03-15T11:10:33;101259.79;;;5.97;63.26
64632;BME280;58358;50.936;0.246;2023-03-15T11:13:08;101259.33;;;5.96;63.81
64632;BME280;58358;50.936;0.246;2023-03-15T11:15:22;101256.16;;;6.69;62.08
64632;BME280;58358;50.936;0.246;2023-03-15T11:17:48;101254.38;;;6.51;61.38
64632;BME280;58358;50.936;0.246;2023-03-15T11:20:25;101255.86;;;6.38;63.19
64632;BME280;58358;50.936;0.246;2023-03-15T11:22:39;101260.64;;;5.38;64.64
64632;BME280;58358;50.936;0.246;2023-03-15T11:25:11;101256.78;;;6.05;63.21
64632;BME280;58358;50.936;0.246;2023-03-15T11:27:31;101248.54;;;6.38;62.49
64632;BME280;58358;50.936;0.246;2023-03-15T11:29:58;101247.39;;;6.21;63.00
64632;BME280;58358;50.936;0.246;2023-03-15T11:32:24;101243.40;;;4.65;66.22
64632;BME280;58358;50.936;0.246;2023-03-15T11:34:54;101242.89;;;5.92;63.67
64632;BME280;58358;50.936;0.246;2023-03-15T11:37:17;101238.46;;;6.62;61.81
64632;BME280;58358;50.936;0.246;2023-03-15T11:39:44;101241.02;;;5.64;64.29
64632;BME280;58358;50.936;0.246;2023-03-15T11:42:07;101239.76;;;6.18;63.15
64632;BME280;58358;50.936;0.246;2023-03-15T11:44:36;101235.82;;;5.59;63.53
64632;BME280;58358;50.936;0.246;2023-03-15T11:47:00;101243.15;;;6.40;62.66
64632;BME280;58358;50.936;0.246;2023-03-15T11:49:29;101242.12;;;6.49;62.35
64632;BME280;58358;50.936;0.246;2023-03-15T11:51:47;101239.82;;;6.43;61.30
64632;BME280;58358;50.936;0.246;2023-03-15T11:54:15;101236.29;;;6.52;60.55
64632;BME280;58358;50.936;0.246;2023-03-15T11:56:48;101236.21;;;5.93;63.23
64632;BME280;58358;50.936;0.246;2023-03-15T11:59:07;101236.22;;;7.13;61.55
64632;BME280;58358;50.936;0.246;2023-03-15T12:01:33;101240.02;;;6.20;60.45
64632;BME280;58358;50.936;0.246;2023-03-15T12:06:36;101240.74;;;7.17;55.35
64632;BME280;58358;50.936;0.246;2023-03-15T12:08:49;101233.90;;;7.51;53.85
64632;BME280;58358;50.936;0.246;2023-03-15T12:16:05;101242.48;;;6.50;59.20
64632;BME280;58358;50.936;0.246;2023-03-15T12:18:32;101236.36;;;7.23;57.18
64632;BME280;58358;50.936;0.246;2023-03-15T12:21:08;101231.83;;;7.17;56.30
64632;BME280;58358;50.936;0.246;2023-03-15T12:23:30;101228.08;;;6.84;56.63
64632;BME280;58358;50.936;0.246;2023-03-15T12:25:53;101229.69;;;6.24;54.86
64632;BME280;58358;50.936;0.246;2023-03-15T12:28:20;101221.74;;;6.85;54.60
64632;BME280;58358;50.936;0.246;2023-03-15T12:30:41;101216.06;;;6.63;54.87
64632;BME280;58358;50.936;0.246;2023-03-15T12:33:12;101215.74;;;7.67;53.16
64632;BME280;58358;50.936;0.246;2023-03-15T12:35:36;101210.92;;;7.15;53.00
64632;BME280;58358;50.936;0.246;2023-03-15T12:37:58;101212.29;;;6.90;52.59
64632;BME280;58358;50.936;0.246;2023-03-15T12:40:37;101208.80;;;7.49;51.21
64632;BME280;58358;50.936;0.246;2023-03-15T12:42:58;101209.78;;;7.63;51.41
64632;BME280;58358;50.936;0.246;2023-03-15T12:47:43;101202.96;;;7.89;51.22
64632;BME280;58358;50.936;0.246;2023-03-15T12:52:39;101190.89;;;8.87;48.14
64632;BME280;58358;50.936;0.246;2023-03-15T12:55:02;101185.97;;;8.42;48.82
64632;BME280;58358;50.936;0.246;2023-03-15T12:57:24;101176.22;;;9.13;47.32
64632;BME280;58358;50.936;0.246;2023-03-15T12:59:50;101171.35;;;9.22;47.09